sensor_id;sensor_type;location;lat;lon;timestamp;P1;durP1;ratioP1;P2;durP2;ratioP2
21122;SDS011;10719;48.130;11.630;2023-05-16T00:00:16;5.95;;;2.25;;
21122;SDS011;10719;48.130;11.630;2023-05-16T00:02:42;4.53;;;2.20;;
21122;SDS011;10719;48.130;11.630;2023-05-16T00:05:08;5.35;;;2.03;;
21122;SDS011;10719;48.130;11.630;2023-05-16T00:07:40;5.38;;;2.20;;
21122;SDS011;10719;48.130;11.630;2023-05-16T00:10:07;5.75;;;2.28;;
21122;SDS011;10719;48.130;11.630;2023-05-16T00:12:33;6.68;;;2.55;;
21122;SDS011;10719;48.130;11.630;2023-05-16T00:15:00;5.90;;;2.58;;
21122;SDS011;10719;48.130;11.630;2023-05-16T00:17:26;6.05;;;2.42;;
21122;SDS011;10719;48.130;11.630;2023-05-16T00:19:53;6.13;;;2.53;;
21122;SDS011;10719;48.130;11.630;2023-05-16T00:22:22;5.30;;;2.13;;
21122;SDS011;10719;48.130;11.630;2023-05-16T00:24:48;6.22;;;2.42;;
21122;SDS011;10719;48.130;11.630;2023-05-16T00:27:14;6.43;;;2.25;;
21122;SDS011;10719;48.130;11.630;2023-05-16T00:29:39;6.57;;;2.70;;
21122;SDS011;10719;48.130;11.630;2023-05-16T00:32:05;6.63;;;3.00;;
21122;SDS011;10719;48.130;11.630;2023-05-16T00:34:32;7.20;;;2.58;;
21122;SDS011;10719;48.130;11.630;2023-05-16T00:36:58;5.95;;;2.30;;
21122;SDS011;10719;48.130;11.630;2023-05-16T00:39:24;5.80;;;2.58;;
21122;SDS011;10719;48.130;11.630;2023-05-16T00:41:50;7.00;;;2.95;;
21122;SDS011;10719;48.130;11.630;2023-05-16T00:44:15;8.35;;;2.78;;
21122;SDS011;10719;48.130;11.630;2023-05-16T00:46:41;5.20;;;2.17;;
21122;SDS011;10719;48.130;11.630;2023-05-16T00:49:07;9.77;;;2.38;;
21122;SDS011;10719;48.130;11.630;2023-05-16T00:51:35;4.90;;;2.42;;
21122;SDS011;10719;48.130;11.630;2023-05-16T00:54:02;5.53;;;2.30;;
21122;SDS011;10719;48.130;11.630;2023-05-16T00:56:29;8.68;;;2.58;;
21122;SDS011;10719;48.130;11.630;2023-05-16T00:58:55;6.57;;;2.38;;
21122;SDS011;10719;48.130;11.630;2023-05-16T01:01:24;6.60;;;2.50;;
21122;SDS011;10719;48.130;11.630;2023-05-16T01:03:51;6.47;;;2.45;;
21122;SDS011;10719;48.130;11.630;2023-05-16T01:06:17;5.53;;;2.67;;
21122;SDS011;10719;48.130;11.630;2023-05-16T01:08:43;7.13;;;2.85;;
21122;SDS011;10719;48.130;11.630;2023-05-16T01:11:23;5.88;;;2.63;;
21122;SDS011;10719;48.130;11.630;2023-05-16T01:22:15;5.55;;;2.22;;
21122;SDS011;10719;48.130;11.630;2023-05-16T01:25:26;9.50;;;2.75;;
21122;SDS011;10719;48.130;11.630;2023-05-16T01:27:40;8.32;;;2.97;;
21122;SDS011;10719;48.130;11.630;2023-05-16T01:30:12;7.35;;;2.90;;
21122;SDS011;10719;48.130;11.630;2023-05-16T01:32:40;6.72;;;2.88;;
21122;SDS011;10719;48.130;11.630;2023-05-16T01:35:05;8.63;;;3.60;;
21122;SDS011;10719;48.130;11.630;2023-05-16T01:37:34;7.55;;;3.05;;
21122;SDS011;10719;48.130;11.630;2023-05-16T01:42:38;7.35;;;2.95;;
21122;SDS011;10719;48.130;11.630;2023-05-16T01:45:10;9.27;;;3.03;;
21122;SDS011;10719;48.130;11.630;2023-05-16T01:47:43;6.43;;;2.63;;
21122;SDS011;10719;48.130;11.630;2023-05-16T01:50:15;7.13;;;2.90;;
21122;SDS011;10719;48.130;11.630;2023-05-16T01:52:45;5.95;;;2.58;;
21122;SDS011;10719;48.130;11.630;2023-05-16T01:55:34;7.40;;;2.65;;
21122;SDS011;10719;48.130;11.630;2023-05-16T01:58:14;7.45;;;2.60;;
21122;SDS011;10719;48.130;11.630;2023-05-16T02:00:41;5.90;;;2.67;;
21122;SDS011;10719;48.130;11.630;2023-05-16T02:03:07;12.95;;;3.78;;
21122;SDS011;10719;48.130;11.630;2023-05-16T02:05:33;7.75;;;3.17;;
21122;SDS011;10719;48.130;11.630;2023-05-16T02:07:59;7.50;;;3.08;;
21122;SDS011;10719;48.130;11.630;2023-05-16T02:10:25;8.15;;;3.30;;
21122;SDS011;10719;48.130;11.630;2023-05-16T02:12:51;7.05;;;2.80;;
21122;SDS011;10719;48.130;11.630;2023-05-16T02:15:17;10.23;;;3.40;;
21122;SDS011;10719;48.130;11.630;2023-05-16T02:17:43;9.10;;;3.13;;
21122;SDS011;10719;48.130;11.630;2023-05-16T02:20:09;7.43;;;2.92;;
21122;SDS011;10719;48.130;11.630;2023-05-16T02:22:35;7.63;;;3.38;;
21122;SDS011;10719;48.130;11.630;2023-05-16T02:25:03;9.75;;;3.13;;
21122;SDS011;10719;48.130;11.630;2023-05-16T02:27:29;8.20;;;2.83;;
21122;SDS011;10719;48.130;11.630;2023-05-16T02:29:54;8.00;;;3.17;;
21122;SDS011;10719;48.130;11.630;2023-05-16T02:32:20;8.43;;;3.30;;
21122;SDS011;10719;48.130;11.630;2023-05-16T02:34:46;7.82;;;3.20;;
21122;SDS011;10719;48.130;11.630;2023-05-16T02:37:12;6.68;;;2.55;;
21122;SDS011;10719;48.130;11.630;2023-05-16T02:39:37;9.45;;;3.20;;
21122;SDS011;10719;48.130;11.630;2023-05-16T02:42:03;7.82;;;2.92;;
21122;SDS011;10719;48.130;11.630;2023-05-16T02:44:30;7.05;;;2.80;;
21122;SDS011;10719;48.130;11.630;2023-05-16T02:46:56;8.57;;;3.55;;
21122;SDS011;10719;48.130;11.630;2023-05-16T02:49:22;7.55;;;3.10;;
21122;SDS011;10719;48.130;11.630;2023-05-16T02:51:47;7.72;;;3.10;;
21122;SDS011;10719;48.130;11.630;2023-05-16T02:54:13;10.43;;;3.47;;
21122;SDS011;10719;48.130;11.630;2023-05-16T02:56:39;8.93;;;3.42;;
21122;SDS011;10719;48.130;11.630;2023-05-16T02:59:04;8.40;;;3.33;;
21122;SDS011;10719;48.130;11.630;2023-05-16T03:01:30;11.43;;;3.33;;
21122;SDS011;10719;48.130;11.630;2023-05-16T03:03:56;10.75;;;4.28;;
21122;SDS011;10719;48.130;11.630;2023-05-16T03:06:21;11.07;;;3.90;;
21122;SDS011;10719;48.130;11.630;2023-05-16T03:08:47;9.77;;;3.90;;
21122;SDS011;10719;48.130;11.630;2023-05-16T03:11:13;8.60;;;3.22;;
21122;SDS011;10719;48.130;11.630;2023-05-16T03:13:39;9.82;;;3.70;;
21122;SDS011;10719;48.130;11.630;2023-05-16T03:16:05;9.60;;;3.30;;
21122;SDS011;10719;48.130;11.630;2023-05-16T03:18:31;9.40;;;3.67;;
21122;SDS011;10719;48.130;11.630;2023-05-16T03:20:57;11.60;;;3.90;;
21122;SDS011;10719;48.130;11.630;2023-05-16T03:23:23;8.85;;;3.10;;
21122;SDS011;10719;48.130;11.630;2023-05-16T03:25:49;10.85;;;3.50;;
21122;SDS011;10719;48.130;11.630;2023-05-16T03:28:15;9.23;;;3.58;;
21122;SDS011;10719;48.130;11.630;2023-05-16T03:30:42;9.45;;;3.53;;
21122;SDS011;10719;48.130;11.630;2023-05-16T03:33:07;7.88;;;3.33;;
21122;SDS011;10719;48.130;11.630;2023-05-16T03:35:34;9.68;;;3.78;;
21122;SDS011;10719;48.130;11.630;2023-05-16T03:38:00;8.63;;;3.55;;
21122;SDS011;10719;48.130;11.630;2023-05-16T03:40:29;9.18;;;3.90;;
21122;SDS011;10719;48.130;11.630;2023-05-16T03:42:55;11.02;;;4.32;;
21122;SDS011;10719;48.130;11.630;2023-05-16T03:45:21;11.32;;;3.83;;
21122;SDS011;10719;48.130;11.630;2023-05-16T03:47:49;9.43;;;3.88;;
21122;SDS011;10719;48.130;11.630;2023-05-16T03:50:15;9.77;;;3.92;;
21122;SDS011;10719;48.130;11.630;2023-05-16T03:52:41;10.13;;;4.05;;
21122;SDS011;10719;48.130;11.630;2023-05-16T03:55:07;9.00;;;3.83;;
21122;SDS011;10719;48.130;11.630;2023-05-16T03:57:35;11.02;;;4.25;;
21122;SDS011;10719;48.130;11.630;2023-05-16T04:00:02;9.35;;;4.03;;
21122;SDS011;10719;48.130;11.630;2023-05-16T04:02:31;10.98;;;4.22;;
21122;SDS011;10719;48.130;11.630;2023-05-16T04:04:57;10.35;;;3.88;;
21122;SDS011;10719;48.130;11.630;2023-05-16T04:07:22;15.73;;;4.53;;
21122;SDS011;10719;48.130;11.630;2023-05-16T04:09:48;9.85;;;4.00;;
21122;SDS011;10719;48.130;11.630;2023-05-16T04:12:14;10.02;;;3.70;;
21122;SDS011;10719;48.130;11.630;2023-05-16T04:14:40;8.63;;;3.70;;
21122;SDS011;10719;48.130;11.630;2023-05-16T04:17:06;11.30;;;4.13;;
21122;SDS011;10719;48.130;11.630;2023-05-16T04:19:31;10.57;;;3.92;;
21122;SDS011;10719;48.130;11.630;2023-05-16T04:21:57;12.13;;;4.40;;
21122;SDS011;10719;48.130;11.630;2023-05-16T04:24:22;11.60;;;4.28;;
21122;SDS011;10719;48.130;11.630;2023-05-16T04:26:50;10.10;;;3.90;;
21122;SDS011;10719;48.130;11.630;2023-05-16T04:29:16;11.85;;;3.70;;
21122;SDS011;10719;48.130;11.630;2023-05-16T04:31:42;10.60;;;3.53;;
21122;SDS011;10719;48.130;11.630;2023-05-16T04:34:07;10.88;;;3.92;;
21122;SDS011;10719;48.130;11.630;2023-05-16T04:36:33;11.88;;;4.50;;
21122;SDS011;10719;48.130;11.630;2023-05-16T04:38:59;11.27;;;4.32;;
21122;SDS011;10719;48.130;11.630;2023-05-16T04:41:25;10.88;;;4.43;;
21122;SDS011;10719;48.130;11.630;2023-05-16T04:43:50;11.45;;;4.55;;
21122;SDS011;10719;48.130;11.630;2023-05-16T04:46:16;10.70;;;4.07;;
21122;SDS011;10719;48.130;11.630;2023-05-16T04:48:42;11.45;;;4.85;;
21122;SDS011;10719;48.130;11.630;2023-05-16T04:51:08;12.38;;;4.85;;
21122;SDS011;10719;48.130;11.630;2023-05-16T04:53:33;10.10;;;4.10;;
21122;SDS011;10719;48.130;11.630;2023-05-16T04:55:59;9.35;;;3.70;;
21122;SDS011;10719;48.130;11.630;2023-05-16T04:58:25;15.57;;;5.13;;
21122;SDS011;10719;48.130;11.630;2023-05-16T05:00:50;11.98;;;4.50;;
21122;SDS011;10719;48.130;11.630;2023-05-16T05:03:16;11.25;;;4.30;;
21122;SDS011;10719;48.130;11.630;2023-05-16T05:05:42;17.65;;;4.97;;
21122;SDS011;10719;48.130;11.630;2023-05-16T05:08:08;14.20;;;5.20;;
21122;SDS011;10719;48.130;11.630;2023-05-16T05:10:34;12.75;;;5.03;;
21122;SDS011;10719;48.130;11.630;2023-05-16T05:13:00;15.88;;;5.20;;
21122;SDS011;10719;48.130;11.630;2023-05-16T05:15:25;13.85;;;4.95;;
21122;SDS011;10719;48.130;11.630;2023-05-16T05:17:51;14.05;;;5.85;;
21122;SDS011;10719;48.130;11.630;2023-05-16T05:20:17;12.98;;;5.20;;
21122;SDS011;10719;48.130;11.630;2023-05-16T05:22:43;13.15;;;5.03;;
21122;SDS011;10719;48.130;11.630;2023-05-16T05:25:08;13.55;;;6.00;;
21122;SDS011;10719;48.130;11.630;2023-05-16T05:27:34;13.80;;;5.22;;
21122;SDS011;10719;48.130;11.630;2023-05-16T05:30:00;15.95;;;5.72;;
21122;SDS011;10719;48.130;11.630;2023-05-16T05:32:26;14.10;;;5.18;;
21122;SDS011;10719;48.130;11.630;2023-05-16T05:34:52;14.00;;;5.57;;
21122;SDS011;10719;48.130;11.630;2023-05-16T05:37:17;12.30;;;5.50;;
21122;SDS011;10719;48.130;11.630;2023-05-16T05:39:43;12.82;;;5.35;;
21122;SDS011;10719;48.130;11.630;2023-05-16T05:42:09;14.88;;;5.72;;
21122;SDS011;10719;48.130;11.630;2023-05-16T05:44:35;14.10;;;5.57;;
21122;SDS011;10719;48.130;11.630;2023-05-16T05:47:01;13.07;;;5.30;;
21122;SDS011;10719;48.130;11.630;2023-05-16T05:49:28;15.60;;;5.90;;
21122;SDS011;10719;48.130;11.630;2023-05-16T05:51:54;11.90;;;4.88;;
21122;SDS011;10719;48.130;11.630;2023-05-16T05:54:20;11.88;;;4.88;;
21122;SDS011;10719;48.130;11.630;2023-05-16T05:56:46;15.98;;;5.70;;
21122;SDS011;10719;48.130;11.630;2023-05-16T05:59:12;15.70;;;5.05;;
21122;SDS011;10719;48.130;11.630;2023-05-16T06:01:37;13.48;;;5.82;;
21122;SDS011;10719;48.130;11.630;2023-05-16T06:04:03;11.10;;;4.90;;
21122;SDS011;10719;48.130;11.630;2023-05-16T06:06:29;12.52;;;5.15;;
21122;SDS011;10719;48.130;11.630;2023-05-16T06:08:55;13.50;;;4.95;;
21122;SDS011;10719;48.130;11.630;2023-05-16T06:11:21;14.05;;;5.20;;
21122;SDS011;10719;48.130;11.630;2023-05-16T06:13:49;12.50;;;5.10;;
21122;SDS011;10719;48.130;11.630;2023-05-16T06:16:15;15.05;;;5.50;;
21122;SDS011;10719;48.130;11.630;2023-05-16T06:18:40;13.80;;;5.07;;
21122;SDS011;10719;48.130;11.630;2023-05-16T06:21:06;15.10;;;5.75;;
21122;SDS011;10719;48.130;11.630;2023-05-16T06:23:32;13.88;;;5.13;;
21122;SDS011;10719;48.130;11.630;2023-05-16T06:25:57;14.30;;;5.78;;
21122;SDS011;10719;48.130;11.630;2023-05-16T06:28:23;15.85;;;6.28;;
21122;SDS011;10719;48.130;11.630;2023-05-16T06:30:49;13.40;;;5.95;;
21122;SDS011;10719;48.130;11.630;2023-05-16T06:33:16;15.45;;;5.30;;
21122;SDS011;10719;48.130;11.630;2023-05-16T06:35:42;14.77;;;6.15;;
21122;SDS011;10719;48.130;11.630;2023-05-16T06:38:07;14.63;;;6.13;;
21122;SDS011;10719;48.130;11.630;2023-05-16T06:40:33;12.20;;;5.10;;
21122;SDS011;10719;48.130;11.630;2023-05-16T06:42:59;12.80;;;4.97;;
21122;SDS011;10719;48.130;11.630;2023-05-16T06:45:24;12.93;;;5.88;;
21122;SDS011;10719;48.130;11.630;2023-05-16T06:47:50;17.42;;;5.13;;
21122;SDS011;10719;48.130;11.630;2023-05-16T06:50:16;14.15;;;6.40;;
21122;SDS011;10719;48.130;11.630;2023-05-16T06:52:41;14.80;;;6.50;;
21122;SDS011;10719;48.130;11.630;2023-05-16T06:55:07;17.07;;;7.60;;
21122;SDS011;10719;48.130;11.630;2023-05-16T06:57:33;16.00;;;6.03;;
21122;SDS011;10719;48.130;11.630;2023-05-16T06:59:58;14.32;;;5.85;;
21122;SDS011;10719;48.130;11.630;2023-05-16T07:02:24;13.65;;;5.65;;
21122;SDS011;10719;48.130;11.630;2023-05-16T07:04:50;13.88;;;5.97;;
21122;SDS011;10719;48.130;11.630;2023-05-16T07:07:15;14.02;;;5.47;;
21122;SDS011;10719;48.130;11.630;2023-05-16T07:09:41;12.95;;;5.38;;
21122;SDS011;10719;48.130;11.630;2023-05-16T07:12:07;15.20;;;4.93;;
21122;SDS011;10719;48.130;11.630;2023-05-16T07:14:33;12.48;;;4.90;;
21122;SDS011;10719;48.130;11.630;2023-05-16T07:16:59;12.68;;;5.45;;
21122;SDS011;10719;48.130;11.630;2023-05-16T07:19:24;13.43;;;5.30;;
21122;SDS011;10719;48.130;11.630;2023-05-16T07:21:50;14.32;;;5.78;;
21122;SDS011;10719;48.130;11.630;2023-05-16T07:24:16;12.48;;;5.78;;
21122;SDS011;10719;48.130;11.630;2023-05-16T07:26:41;14.73;;;5.70;;
21122;SDS011;10719;48.130;11.630;2023-05-16T07:29:07;16.05;;;5.57;;
21122;SDS011;10719;48.130;11.630;2023-05-16T07:31:33;13.70;;;5.90;;
21122;SDS011;10719;48.130;11.630;2023-05-16T07:33:58;13.95;;;6.05;;
21122;SDS011;10719;48.130;11.630;2023-05-16T07:36:24;12.32;;;5.55;;
21122;SDS011;10719;48.130;11.630;2023-05-16T07:38:50;13.43;;;5.90;;
21122;SDS011;10719;48.130;11.630;2023-05-16T07:41:16;14.13;;;5.60;;
21122;SDS011;10719;48.130;11.630;2023-05-16T07:43:41;13.18;;;6.18;;
21122;SDS011;10719;48.130;11.630;2023-05-16T07:46:07;15.27;;;6.88;;
21122;SDS011;10719;48.130;11.630;2023-05-16T07:48:32;15.52;;;6.68;;
21122;SDS011;10719;48.130;11.630;2023-05-16T07:50:58;15.93;;;6.22;;
21122;SDS011;10719;48.130;11.630;2023-05-16T07:53:23;15.63;;;6.45;;
21122;SDS011;10719;48.130;11.630;2023-05-16T07:55:49;16.30;;;6.60;;
21122;SDS011;10719;48.130;11.630;2023-05-16T07:58:15;15.55;;;6.65;;
21122;SDS011;10719;48.130;11.630;2023-05-16T08:00:41;15.07;;;6.38;;
21122;SDS011;10719;48.130;11.630;2023-05-16T08:03:06;13.98;;;6.28;;
21122;SDS011;10719;48.130;11.630;2023-05-16T08:05:32;13.52;;;6.18;;
21122;SDS011;10719;48.130;11.630;2023-05-16T08:07:57;13.23;;;5.68;;
21122;SDS011;10719;48.130;11.630;2023-05-16T08:10:23;14.30;;;6.35;;
21122;SDS011;10719;48.130;11.630;2023-05-16T08:12:49;13.48;;;5.95;;
21122;SDS011;10719;48.130;11.630;2023-05-16T08:15:14;14.60;;;6.63;;
21122;SDS011;10719;48.130;11.630;2023-05-16T08:17:40;15.45;;;6.35;;
21122;SDS011;10719;48.130;11.630;2023-05-16T08:20:06;15.15;;;6.43;;
21122;SDS011;10719;48.130;11.630;2023-05-16T08:22:32;14.27;;;6.25;;
21122;SDS011;10719;48.130;11.630;2023-05-16T08:24:58;13.35;;;6.28;;
21122;SDS011;10719;48.130;11.630;2023-05-16T08:27:24;15.35;;;6.80;;
21122;SDS011;10719;48.130;11.630;2023-05-16T08:29:51;16.20;;;6.60;;
21122;SDS011;10719;48.130;11.630;2023-05-16T08:32:17;16.92;;;6.70;;
21122;SDS011;10719;48.130;11.630;2023-05-16T08:34:42;20.83;;;6.65;;
21122;SDS011;10719;48.130;11.630;2023-05-16T08:37:08;14.90;;;7.18;;
21122;SDS011;10719;48.130;11.630;2023-05-16T08:39:34;14.30;;;6.15;;
21122;SDS011;10719;48.130;11.630;2023-05-16T08:42:02;15.05;;;6.22;;
21122;SDS011;10719;48.130;11.630;2023-05-16T08:44:29;14.23;;;6.72;;
21122;SDS011;10719;48.130;11.630;2023-05-16T08:46:54;14.38;;;6.70;;
21122;SDS011;10719;48.130;11.630;2023-05-16T08:49:21;14.18;;;6.40;;
21122;SDS011;10719;48.130;11.630;2023-05-16T08:51:51;14.82;;;7.10;;
21122;SDS011;10719;48.130;11.630;2023-05-16T08:54:21;13.95;;;6.63;;
21122;SDS011;10719;48.130;11.630;2023-05-16T08:56:46;17.77;;;7.43;;
21122;SDS011;10719;48.130;11.630;2023-05-16T08:59:14;14.30;;;7.07;;
21122;SDS011;10719;48.130;11.630;2023-05-16T09:01:40;14.95;;;6.78;;
21122;SDS011;10719;48.130;11.630;2023-05-16T09:04:06;13.15;;;6.65;;
21122;SDS011;10719;48.130;11.630;2023-05-16T09:06:33;13.13;;;6.40;;
21122;SDS011;10719;48.130;11.630;2023-05-16T09:09:00;18.02;;;7.03;;
21122;SDS011;10719;48.130;11.630;2023-05-16T09:11:26;19.35;;;8.43;;
21122;SDS011;10719;48.130;11.630;2023-05-16T09:13:52;15.40;;;7.03;;
21122;SDS011;10719;48.130;11.630;2023-05-16T09:16:18;15.35;;;6.22;;
21122;SDS011;10719;48.130;11.630;2023-05-16T09:18:46;13.75;;;6.45;;
21122;SDS011;10719;48.130;11.630;2023-05-16T09:21:22;14.98;;;6.65;;
21122;SDS011;10719;48.130;11.630;2023-05-16T09:23:51;15.30;;;7.15;;
21122;SDS011;10719;48.130;11.630;2023-05-16T09:26:17;13.80;;;6.53;;
21122;SDS011;10719;48.130;11.630;2023-05-16T09:28:43;18.08;;;7.10;;
21122;SDS011;10719;48.130;11.630;2023-05-16T09:31:22;13.90;;;6.15;;
21122;SDS011;10719;48.130;11.630;2023-05-16T09:33:59;17.48;;;6.55;;
21122;SDS011;10719;48.130;11.630;2023-05-16T09:36:25;13.13;;;6.13;;
21122;SDS011;10719;48.130;11.630;2023-05-16T09:38:51;17.48;;;6.35;;
21122;SDS011;10719;48.130;11.630;2023-05-16T09:41:17;14.65;;;6.55;;
21122;SDS011;10719;48.130;11.630;2023-05-16T09:43:43;15.07;;;6.45;;
21122;SDS011;10719;48.130;11.630;2023-05-16T09:46:12;12.45;;;6.03;;
21122;SDS011;10719;48.130;11.630;2023-05-16T09:48:45;14.40;;;6.85;;
21122;SDS011;10719;48.130;11.630;2023-05-16T09:51:12;13.73;;;6.10;;
21122;SDS011;10719;48.130;11.630;2023-05-16T09:53:39;13.90;;;6.00;;
21122;SDS011;10719;48.130;11.630;2023-05-16T09:56:12;13.43;;;6.18;;
21122;SDS011;10719;48.130;11.630;2023-05-16T09:58:39;13.52;;;6.30;;
21122;SDS011;10719;48.130;11.630;2023-05-16T10:01:06;16.85;;;6.88;;
21122;SDS011;10719;48.130;11.630;2023-05-16T10:03:33;13.10;;;6.00;;
21122;SDS011;10719;48.130;11.630;2023-05-16T10:06:00;13.88;;;6.18;;
21122;SDS011;10719;48.130;11.630;2023-05-16T10:08:27;15.05;;;7.20;;
21122;SDS011;10719;48.130;11.630;2023-05-16T10:10:56;15.15;;;6.20;;
21122;SDS011;10719;48.130;11.630;2023-05-16T10:13:32;13.25;;;6.45;;
21122;SDS011;10719;48.130;11.630;2023-05-16T10:15:59;12.95;;;6.20;;
21122;SDS011;10719;48.130;11.630;2023-05-16T10:18:30;15.15;;;6.68;;
21122;SDS011;10719;48.130;11.630;2023-05-16T10:21:02;16.67;;;7.28;;
21122;SDS011;10719;48.130;11.630;2023-05-16T10:23:29;14.73;;;6.47;;
21122;SDS011;10719;48.130;11.630;2023-05-16T10:25:57;17.00;;;8.67;;
21122;SDS011;10719;48.130;11.630;2023-05-16T10:28:27;14.80;;;7.15;;
21122;SDS011;10719;48.130;11.630;2023-05-16T10:30:53;17.88;;;7.43;;
21122;SDS011;10719;48.130;11.630;2023-05-16T10:33:20;15.57;;;6.65;;
21122;SDS011;10719;48.130;11.630;2023-05-16T10:35:46;16.45;;;8.30;;
21122;SDS011;10719;48.130;11.630;2023-05-16T10:38:12;18.55;;;8.02;;
21122;SDS011;10719;48.130;11.630;2023-05-16T10:40:41;15.98;;;7.15;;
21122;SDS011;10719;48.130;11.630;2023-05-16T10:43:07;15.90;;;7.35;;
21122;SDS011;10719;48.130;11.630;2023-05-16T10:45:34;15.27;;;6.95;;
21122;SDS011;10719;48.130;11.630;2023-05-16T10:48:06;15.20;;;8.00;;
21122;SDS011;10719;48.130;11.630;2023-05-16T10:53:16;17.05;;;7.57;;
21122;SDS011;10719;48.130;11.630;2023-05-16T10:55:50;17.58;;;7.95;;
21122;SDS011;10719;48.130;11.630;2023-05-16T11:01:23;16.92;;;8.13;;
21122;SDS011;10719;48.130;11.630;2023-05-16T11:09:26;16.38;;;7.97;;
21122;SDS011;10719;48.130;11.630;2023-05-16T11:14:24;18.30;;;7.78;;
21122;SDS011;10719;48.130;11.630;2023-05-16T11:16:50;16.70;;;7.78;;
21122;SDS011;10719;48.130;11.630;2023-05-16T11:19:44;16.35;;;7.63;;
21122;SDS011;10719;48.130;11.630;2023-05-16T11:22:20;17.00;;;7.32;;
21122;SDS011;10719;48.130;11.630;2023-05-16T11:25:08;19.17;;;7.65;;
21122;SDS011;10719;48.130;11.630;2023-05-16T11:27:44;15.75;;;7.28;;
21122;SDS011;10719;48.130;11.630;2023-05-16T11:30:14;15.75;;;7.30;;
21122;SDS011;10719;48.130;11.630;2023-05-16T11:32:45;14.80;;;7.20;;
21122;SDS011;10719;48.130;11.630;2023-05-16T11:35:13;15.05;;;6.93;;
21122;SDS011;10719;48.130;11.630;2023-05-16T11:37:41;15.90;;;6.75;;
21122;SDS011;10719;48.130;11.630;2023-05-16T11:40:08;18.85;;;7.35;;
21122;SDS011;10719;48.130;11.630;2023-05-16T11:42:41;13.32;;;6.53;;
21122;SDS011;10719;48.130;11.630;2023-05-16T11:47:43;15.05;;;6.82;;
21122;SDS011;10719;48.130;11.630;2023-05-16T11:52:37;12.40;;;6.00;;
21122;SDS011;10719;48.130;11.630;2023-05-16T11:55:04;15.38;;;7.13;;
21122;SDS011;10719;48.130;11.630;2023-05-16T11:57:31;14.30;;;6.97;;
21122;SDS011;10719;48.130;11.630;2023-05-16T12:02:40;15.93;;;7.65;;
21122;SDS011;10719;48.130;11.630;2023-05-16T12:05:06;17.65;;;8.20;;
21122;SDS011;10719;48.130;11.630;2023-05-16T12:07:33;17.55;;;8.35;;
21122;SDS011;10719;48.130;11.630;2023-05-16T12:09:59;18.73;;;8.63;;
21122;SDS011;10719;48.130;11.630;2023-05-16T12:12:32;18.02;;;8.15;;
21122;SDS011;10719;48.130;11.630;2023-05-16T12:14:59;17.25;;;8.77;;
21122;SDS011;10719;48.130;11.630;2023-05-16T12:17:27;18.92;;;8.27;;
21122;SDS011;10719;48.130;11.630;2023-05-16T12:19:53;18.10;;;8.88;;
21122;SDS011;10719;48.130;11.630;2023-05-16T12:22:19;17.15;;;8.65;;
21122;SDS011;10719;48.130;11.630;2023-05-16T12:24:45;18.73;;;8.85;;
21122;SDS011;10719;48.130;11.630;2023-05-16T12:27:11;20.15;;;9.40;;
21122;SDS011;10719;48.130;11.630;2023-05-16T12:29:37;15.48;;;8.05;;
21122;SDS011;10719;48.130;11.630;2023-05-16T12:32:03;20.50;;;8.35;;
21122;SDS011;10719;48.130;11.630;2023-05-16T12:34:31;15.00;;;7.65;;
21122;SDS011;10719;48.130;11.630;2023-05-16T12:36:57;17.23;;;8.95;;
21122;SDS011;10719;48.130;11.630;2023-05-16T12:39:23;15.90;;;8.18;;
21122;SDS011;10719;48.130;11.630;2023-05-16T12:41:49;21.05;;;10.60;;
21122;SDS011;10719;48.130;11.630;2023-05-16T12:44:16;18.98;;;8.38;;
21122;SDS011;10719;48.130;11.630;2023-05-16T12:46:44;19.85;;;8.50;;
21122;SDS011;10719;48.130;11.630;2023-05-16T12:49:15;17.58;;;7.82;;
21122;SDS011;10719;48.130;11.630;2023-05-16T12:51:53;16.60;;;8.05;;
21122;SDS011;10719;48.130;11.630;2023-05-16T12:54:21;19.65;;;10.82;;
21122;SDS011;10719;48.130;11.630;2023-05-16T12:56:47;16.88;;;8.23;;
21122;SDS011;10719;48.130;11.630;2023-05-16T12:59:13;15.55;;;8.20;;
21122;SDS011;10719;48.130;11.630;2023-05-16T13:01:39;17.00;;;8.77;;
21122;SDS011;10719;48.130;11.630;2023-05-16T13:04:05;17.67;;;8.18;;
21122;SDS011;10719;48.130;11.630;2023-05-16T13:06:32;20.00;;;9.38;;
21122;SDS011;10719;48.130;11.630;2023-05-16T13:08:58;16.88;;;8.63;;
21122;SDS011;10719;48.130;11.630;2023-05-16T13:11:24;18.10;;;8.70;;
21122;SDS011;10719;48.130;11.630;2023-05-16T13:13:50;17.92;;;9.50;;
21122;SDS011;10719;48.130;11.630;2023-05-16T13:16:16;22.08;;;9.90;;
21122;SDS011;10719;48.130;11.630;2023-05-16T13:18:42;19.88;;;9.70;;
21122;SDS011;10719;48.130;11.630;2023-05-16T13:21:07;16.00;;;8.35;;
21122;SDS011;10719;48.130;11.630;2023-05-16T13:23:33;20.88;;;10.13;;
21122;SDS011;10719;48.130;11.630;2023-05-16T13:25:59;18.05;;;8.82;;
21122;SDS011;10719;48.130;11.630;2023-05-16T13:28:24;19.50;;;9.52;;
21122;SDS011;10719;48.130;11.630;2023-05-16T13:30:50;19.08;;;9.73;;
21122;SDS011;10719;48.130;11.630;2023-05-16T13:33:16;18.70;;;8.73;;
21122;SDS011;10719;48.130;11.630;2023-05-16T13:35:42;17.08;;;8.25;;
21122;SDS011;10719;48.130;11.630;2023-05-16T13:38:08;23.58;;;9.63;;
21122;SDS011;10719;48.130;11.630;2023-05-16T13:40:33;18.65;;;9.38;;
21122;SDS011;10719;48.130;11.630;2023-05-16T13:43:00;15.45;;;8.43;;
21122;SDS011;10719;48.130;11.630;2023-05-16T13:45:26;11.32;;;4.70;;
21122;SDS011;10719;48.130;11.630;2023-05-16T13:47:52;11.95;;;4.60;;
21122;SDS011;10719;48.130;11.630;2023-05-16T13:50:17;12.15;;;4.97;;
21122;SDS011;10719;48.130;11.630;2023-05-16T13:52:43;9.18;;;3.97;;
21122;SDS011;10719;48.130;11.630;2023-05-16T13:55:09;12.35;;;3.78;;
21122;SDS011;10719;48.130;11.630;2023-05-16T13:57:35;9.75;;;3.75;;
21122;SDS011;10719;48.130;11.630;2023-05-16T14:00:01;7.60;;;3.70;;
21122;SDS011;10719;48.130;11.630;2023-05-16T14:02:36;8.63;;;3.75;;
21122;SDS011;10719;48.130;11.630;2023-05-16T14:05:03;6.43;;;2.70;;
21122;SDS011;10719;48.130;11.630;2023-05-16T14:07:29;12.38;;;4.05;;
21122;SDS011;10719;48.130;11.630;2023-05-16T14:09:55;10.32;;;3.95;;
21122;SDS011;10719;48.130;11.630;2023-05-16T14:12:20;10.57;;;4.32;;
21122;SDS011;10719;48.130;11.630;2023-05-16T14:14:46;14.85;;;3.80;;
21122;SDS011;10719;48.130;11.630;2023-05-16T14:17:11;11.60;;;4.80;;
21122;SDS011;10719;48.130;11.630;2023-05-16T14:19:37;10.88;;;4.78;;
21122;SDS011;10719;48.130;11.630;2023-05-16T14:22:02;10.85;;;4.47;;
21122;SDS011;10719;48.130;11.630;2023-05-16T14:24:28;10.57;;;4.43;;
21122;SDS011;10719;48.130;11.630;2023-05-16T14:26:54;11.90;;;4.68;;
21122;SDS011;10719;48.130;11.630;2023-05-16T14:29:20;12.00;;;5.15;;
21122;SDS011;10719;48.130;11.630;2023-05-16T14:31:45;15.75;;;5.22;;
21122;SDS011;10719;48.130;11.630;2023-05-16T14:34:11;12.18;;;4.57;;
21122;SDS011;10719;48.130;11.630;2023-05-16T14:36:37;12.25;;;4.90;;
21122;SDS011;10719;48.130;11.630;2023-05-16T14:39:02;10.65;;;5.07;;
21122;SDS011;10719;48.130;11.630;2023-05-16T14:41:28;12.38;;;4.93;;
21122;SDS011;10719;48.130;11.630;2023-05-16T14:43:54;13.13;;;5.68;;
21122;SDS011;10719;48.130;11.630;2023-05-16T14:46:20;15.68;;;5.63;;
21122;SDS011;10719;48.130;11.630;2023-05-16T14:48:45;11.93;;;5.20;;
21122;SDS011;10719;48.130;11.630;2023-05-16T14:51:11;13.65;;;5.60;;
21122;SDS011;10719;48.130;11.630;2023-05-16T14:53:36;14.10;;;5.80;;
21122;SDS011;10719;48.130;11.630;2023-05-16T14:56:02;15.43;;;7.50;;